createdAt,value
2022-12-20T00:01:27.041Z,106.85
2022-12-20T00:03:56.900Z,94.68
2022-12-20T00:06:27.240Z,73.68
2022-12-20T00:08:56.414Z,71.85
2022-12-20T00:11:25.564Z,62.65
2022-12-20T00:13:53.887Z,46.33
2022-12-20T00:16:24.493Z,62.95
2022-12-20T00:18:54.600Z,195.13
2022-12-20T00:21:23.669Z,186.15
2022-12-20T00:23:54.298Z,179.63
2022-12-20T00:26:25.725Z,178.35
2022-12-20T00:28:54.351Z,191.95
2022-12-20T00:31:25.281Z,189.48
2022-12-20T00:33:54.962Z,147.75
2022-12-20T00:36:24.673Z,100.38
2022-12-20T00:38:56.289Z,86.60
2022-12-20T00:41:27.060Z,78.43
2022-12-20T00:43:55.580Z,123.57
2022-12-20T00:46:24.734Z,115.43
2022-12-20T00:48:53.286Z,197.23
2022-12-20T00:51:23.611Z,200.20
2022-12-20T00:53:52.836Z,164.43
2022-12-20T00:56:21.974Z,76.63
2022-12-20T00:58:50.077Z,58.20
2022-12-20T01:01:22.003Z,125.72
2022-12-20T01:03:50.832Z,157.77
2022-12-20T01:06:19.599Z,171.23
2022-12-20T01:08:47.555Z,169.85
2022-12-20T01:11:21.545Z,180.13
2022-12-20T01:13:52.503Z,189.75
2022-12-20T01:16:22.620Z,185.37
2022-12-20T01:18:50.963Z,187.43
2022-12-20T01:21:21.146Z,163.32
2022-12-20T01:23:49.103Z,125.47
2022-12-20T01:26:20.470Z,71.53
2022-12-20T01:28:49.167Z,83.95
2022-12-20T01:31:19.698Z,52.72
2022-12-20T01:33:49.657Z,74.68
2022-12-20T01:36:19.696Z,53.00
2022-12-20T01:38:48.050Z,65.15
2022-12-20T01:41:19.120Z,130.77
2022-12-20T01:43:50.801Z,116.20
2022-12-20T01:46:21.397Z,98.15
2022-12-20T01:48:53.454Z,53.53
2022-12-20T01:51:23.841Z,49.78
2022-12-20T01:53:56.561Z,43.55
2022-12-20T01:56:26.168Z,57.75
2022-12-20T01:58:56.406Z,85.45
2022-12-20T02:01:25.520Z,71.93
2022-12-20T02:03:56.131Z,63.65
2022-12-20T02:06:27.772Z,53.78
2022-12-20T02:09:00.211Z,45.15
2022-12-20T02:11:47.287Z,52.75
2022-12-20T02:14:27.525Z,55.50
2022-12-20T02:17:04.907Z,69.68
2022-12-20T02:19:55.543Z,88.18
2022-12-20T02:22:30.843Z,143.10
2022-12-20T02:25:22.006Z,169.30
2022-12-20T02:28:02.287Z,166.70
2022-12-20T02:30:35.581Z,108.80
2022-12-20T02:33:05.586Z,107.50
2022-12-20T02:35:35.458Z,115.30
2022-12-20T02:38:06.344Z,87.63
2022-12-20T02:40:37.646Z,117.85
2022-12-20T02:43:29.793Z,103.82
2022-12-20T02:46:00.269Z,101.68
2022-12-20T02:48:33.102Z,89.30
2022-12-20T02:51:03.759Z,66.40
2022-12-20T02:53:32.264Z,56.50
2022-12-20T02:56:04.784Z,212.85
2022-12-20T02:58:40.089Z,214.35
2022-12-20T03:01:13.456Z,209.75
2022-12-20T03:03:42.123Z,200.43
2022-12-20T03:06:10.048Z,212.55
2022-12-20T03:08:38.048Z,159.52
2022-12-20T03:11:06.279Z,125.65
2022-12-20T03:13:36.852Z,167.77
2022-12-20T03:16:04.651Z,161.27
2022-12-20T03:18:34.315Z,236.10
2022-12-20T03:21:02.302Z,230.98
2022-12-20T03:23:30.291Z,242.90
2022-12-20T03:25:58.411Z,238.63
2022-12-20T03:28:26.477Z,234.48
2022-12-20T03:30:54.299Z,159.38
2022-12-20T03:33:22.672Z,136.68
2022-12-20T03:35:52.867Z,190.77
2022-12-20T03:38:20.887Z,182.90
2022-12-20T03:40:48.905Z,107.65
2022-12-20T03:43:16.851Z,83.72
2022-12-20T03:45:44.582Z,166.20
2022-12-20T03:48:12.834Z,210.57
2022-12-20T03:50:40.543Z,167.82
2022-12-20T03:53:10.100Z,93.70
2022-12-20T03:55:38.062Z,175.52
2022-12-20T03:58:06.074Z,198.18
2022-12-20T04:00:33.926Z,193.70
2022-12-20T04:03:02.255Z,175.95
2022-12-20T04:05:30.091Z,156.25
2022-12-20T04:08:00.124Z,130.40
2022-12-20T04:10:29.490Z,137.85
2022-12-20T04:12:57.513Z,149.63
2022-12-20T04:15:25.279Z,149.70
2022-12-20T04:17:54.198Z,117.38
2022-12-20T04:20:21.916Z,98.20
2022-12-20T04:22:51.605Z,64.38
2022-12-20T04:25:21.782Z,56.10
2022-12-20T04:27:51.263Z,55.30
2022-12-20T04:30:19.400Z,50.30
2022-12-20T04:32:47.500Z,47.15
2022-12-20T04:35:15.399Z,63.03
2022-12-20T04:37:43.573Z,44.17
2022-12-20T04:40:12.384Z,40.08
2022-12-20T04:42:40.548Z,39.63
2022-12-20T04:45:10.336Z,37.35
2022-12-20T04:47:38.448Z,34.75
2022-12-20T04:50:07.629Z,36.95
2022-12-20T04:52:53.334Z,35.03
2022-12-20T04:55:21.272Z,35.40
2022-12-20T04:57:49.266Z,36.65
2022-12-20T05:00:19.064Z,35.55
2022-12-20T05:02:47.421Z,34.05
2022-12-20T05:05:15.533Z,35.95
2022-12-20T05:07:43.527Z,36.03
2022-12-20T05:10:12.028Z,35.88
2022-12-20T05:12:40.040Z,38.35
2022-12-20T05:15:08.701Z,36.47
2022-12-20T05:17:38.381Z,38.58
2022-12-20T05:20:09.175Z,40.45
2022-12-20T05:22:54.799Z,38.70
2022-12-20T05:25:48.426Z,38.70
2022-12-20T05:28:16.730Z,43.70
2022-12-20T05:30:47.467Z,49.90
2022-12-20T05:33:16.904Z,47.38
2022-12-20T05:35:44.748Z,47.53
2022-12-20T05:38:12.911Z,44.67
2022-12-20T05:40:41.648Z,44.10
2022-12-20T05:43:10.020Z,40.15
2022-12-20T05:45:38.278Z,36.47
2022-12-20T05:48:07.642Z,39.47
2022-12-20T05:50:36.823Z,36.35
2022-12-20T05:53:11.246Z,36.50
2022-12-20T05:55:40.439Z,35.17
2022-12-20T05:58:08.872Z,33.10
2022-12-20T06:00:37.378Z,35.03
2022-12-20T06:03:05.614Z,35.58
2022-12-20T06:05:33.607Z,35.03
2022-12-20T06:08:02.907Z,33.45
2022-12-20T06:10:31.206Z,34.08
2022-12-20T06:12:59.880Z,36.60
2022-12-20T06:15:27.937Z,36.97
2022-12-20T06:17:56.317Z,34.03
2022-12-20T06:20:24.102Z,37.80
2022-12-20T06:22:52.555Z,44.95
2022-12-20T06:25:21.860Z,44.95
2022-12-20T06:27:49.832Z,50.17
2022-12-20T06:30:18.430Z,44.75
2022-12-20T06:32:46.703Z,50.53
2022-12-20T06:35:15.354Z,50.15
2022-12-20T06:37:43.824Z,46.85
2022-12-20T06:40:13.675Z,47.28
2022-12-20T06:42:43.282Z,42.22
2022-12-20T06:45:11.741Z,43.03
2022-12-20T06:47:40.330Z,44.15
2022-12-20T06:50:09.232Z,44.97
2022-12-20T06:52:37.240Z,43.97
2022-12-20T06:55:05.765Z,44.00
2022-12-20T06:57:34.095Z,38.75
2022-12-20T07:00:03.712Z,38.95
2022-12-20T07:02:33.740Z,37.70
2022-12-20T07:05:01.632Z,38.00
2022-12-20T07:07:29.744Z,41.50
2022-12-20T07:09:59.664Z,37.08
2022-12-20T07:12:27.739Z,40.63
2022-12-20T07:14:55.487Z,40.88
2022-12-20T07:17:25.046Z,39.40
2022-12-20T07:19:56.704Z,40.63
2022-12-20T07:22:28.101Z,38.30
2022-12-20T07:24:56.072Z,42.55
2022-12-20T07:27:24.122Z,43.55
2022-12-20T07:29:52.414Z,41.88
2022-12-20T07:32:20.517Z,45.45
2022-12-20T07:34:49.627Z,42.22
2022-12-20T07:37:17.986Z,44.53
2022-12-20T07:39:45.890Z,42.10
2022-12-20T07:42:14.128Z,41.63
2022-12-20T07:44:42.450Z,42.65
2022-12-20T07:47:10.962Z,45.08
2022-12-20T07:49:38.743Z,42.88
2022-12-20T07:52:09.700Z,45.03
2022-12-20T07:54:43.079Z,43.38
2022-12-20T07:57:16.787Z,45.13
2022-12-20T07:59:49.135Z,41.72
2022-12-20T08:02:24.545Z,44.80
2022-12-20T08:04:54.588Z,45.92
2022-12-20T08:07:24.931Z,46.97
2022-12-20T08:09:54.528Z,49.15
2022-12-20T08:12:25.961Z,49.05
2022-12-20T08:14:56.332Z,47.38
2022-12-20T08:17:27.150Z,46.22
2022-12-20T08:19:57.545Z,44.00
2022-12-20T08:22:27.611Z,42.25
2022-12-20T08:24:55.346Z,42.60
2022-12-20T08:27:23.668Z,41.13
2022-12-20T08:29:51.603Z,39.85
2022-12-20T08:32:19.832Z,39.47
2022-12-20T08:34:48.329Z,39.50
2022-12-20T08:37:17.201Z,36.40
2022-12-20T08:39:46.371Z,38.35
2022-12-20T08:42:15.963Z,37.58
2022-12-20T08:44:45.899Z,36.42
2022-12-20T08:47:13.971Z,40.08
2022-12-20T08:49:47.880Z,39.08
2022-12-20T08:52:16.431Z,38.17
2022-12-20T08:54:46.987Z,36.65
2022-12-20T08:57:18.313Z,36.17
2022-12-20T08:59:46.231Z,35.45
2022-12-20T09:02:14.383Z,33.75
2022-12-20T09:04:42.411Z,36.45
2022-12-20T09:07:13.578Z,33.80
2022-12-20T09:09:41.296Z,36.00
2022-12-20T09:12:10.826Z,35.45
2022-12-20T09:14:41.576Z,34.92
2022-12-20T09:17:09.644Z,36.83
2022-12-20T09:19:37.541Z,35.25
2022-12-20T09:22:05.676Z,37.83
2022-12-20T09:24:33.466Z,35.88
2022-12-20T09:27:01.603Z,36.38
2022-12-20T09:29:35.510Z,36.17
2022-12-20T09:32:04.647Z,35.97
2022-12-20T09:34:32.641Z,38.53
2022-12-20T09:37:01.084Z,37.42
2022-12-20T09:39:29.134Z,39.65
2022-12-20T09:41:59.180Z,40.85
2022-12-20T09:44:31.617Z,46.30
2022-12-20T09:47:10.076Z,43.90
2022-12-20T09:49:42.411Z,39.90
2022-12-20T09:52:35.570Z,39.72
2022-12-20T09:57:54.908Z,43.22
2022-12-20T10:00:22.727Z,41.33
2022-12-20T10:03:08.702Z,46.88
2022-12-20T10:05:47.050Z,45.92
2022-12-20T10:08:25.091Z,43.03
2022-12-20T10:10:56.275Z,44.55
2022-12-20T10:13:44.467Z,45.45
2022-12-20T10:16:29.904Z,45.30
2022-12-20T10:19:13.974Z,43.97
2022-12-20T10:21:50.268Z,46.85
2022-12-20T10:24:21.556Z,42.83
2022-12-20T10:26:51.360Z,42.22
2022-12-20T10:29:21.047Z,44.10
2022-12-20T10:31:51.106Z,45.50
2022-12-20T10:34:20.622Z,41.05
2022-12-20T10:37:02.480Z,42.83
2022-12-20T10:39:42.883Z,42.03
2022-12-20T10:42:26.984Z,40.25
2022-12-20T10:44:57.536Z,39.42
2022-12-20T10:47:39.293Z,41.17
2022-12-20T10:50:16.790Z,40.25
2022-12-20T10:52:46.228Z,39.47
2022-12-20T10:55:35.366Z,40.58
2022-12-20T10:58:17.170Z,40.20
2022-12-20T11:00:49.590Z,37.53
2022-12-20T11:03:21.084Z,37.65
2022-12-20T11:05:58.873Z,38.17
2022-12-20T11:08:44.977Z,39.35
2022-12-20T11:11:18.985Z,37.88
2022-12-20T11:13:47.866Z,42.88
2022-12-20T11:16:38.842Z,44.97
2022-12-20T11:19:22.727Z,43.90
2022-12-20T11:22:00.838Z,46.53
2022-12-20T11:24:35.132Z,42.15
2022-12-20T11:27:17.051Z,41.63
2022-12-20T11:29:59.998Z,41.58
2022-12-20T11:32:48.313Z,41.53
2022-12-20T11:35:23.263Z,39.47
2022-12-20T11:38:09.307Z,39.72
2022-12-20T11:40:45.234Z,44.53
2022-12-20T11:43:27.568Z,40.85
2022-12-20T11:46:15.365Z,41.88
2022-12-20T11:48:58.447Z,43.58
2022-12-20T11:51:36.211Z,45.78
2022-12-20T11:54:11.960Z,46.50
2022-12-20T11:56:44.720Z,47.55
2022-12-20T11:59:22.496Z,49.63
2022-12-20T12:01:57.774Z,42.25
2022-12-20T12:04:28.429Z,44.17
2022-12-20T12:07:00.948Z,41.53
2022-12-20T12:09:34.431Z,42.95
2022-12-20T12:12:07.687Z,45.00
2022-12-20T12:14:57.315Z,47.47
2022-12-20T12:17:30.420Z,48.70
2022-12-20T12:20:09.459Z,48.42
2022-12-20T12:22:40.864Z,49.17
2022-12-20T12:25:16.435Z,50.50
2022-12-20T12:27:44.910Z,51.90
2022-12-20T12:30:14.559Z,52.80
2022-12-20T12:32:48.971Z,47.50
2022-12-20T12:35:39.708Z,50.00
2022-12-20T12:38:26.904Z,47.63
2022-12-20T12:41:17.788Z,47.60
2022-12-20T12:43:48.823Z,46.60
2022-12-20T12:46:21.201Z,42.13
2022-12-20T12:48:55.342Z,43.20
2022-12-20T12:51:29.251Z,44.05
2022-12-20T12:54:15.171Z,47.40
2022-12-20T12:56:47.060Z,46.83
2022-12-20T12:59:38.482Z,49.20
2022-12-20T13:02:27.317Z,57.92
2022-12-20T13:04:58.347Z,48.05
2022-12-20T13:07:31.916Z,51.00
2022-12-20T13:10:00.529Z,48.65
2022-12-20T13:12:57.455Z,46.97
2022-12-20T13:15:51.176Z,49.47
2022-12-20T13:18:29.347Z,44.25
2022-12-20T13:21:28.926Z,45.03
2022-12-20T13:24:41.838Z,44.55
2022-12-20T13:27:19.127Z,46.22
2022-12-20T13:30:14.552Z,47.42
2022-12-20T13:32:57.022Z,45.88
2022-12-20T13:35:30.817Z,48.03
2022-12-20T13:38:02.162Z,49.88
2022-12-20T13:40:37.381Z,38.67
2022-12-20T13:43:13.204Z,49.75
2022-12-20T13:45:46.810Z,53.40
2022-12-20T13:48:18.596Z,52.05
2022-12-20T13:50:52.810Z,51.35
2022-12-20T13:53:23.542Z,53.47
2022-12-20T13:55:51.774Z,54.22
2022-12-20T13:58:21.244Z,59.70
2022-12-20T14:00:51.317Z,65.82
2022-12-20T14:03:24.465Z,79.68
2022-12-20T14:05:58.086Z,84.13
2022-12-20T14:08:30.039Z,86.40
2022-12-20T14:11:08.674Z,81.25
2022-12-20T14:13:36.893Z,78.43
2022-12-20T14:16:14.643Z,75.30
2022-12-20T14:18:44.375Z,68.38
2022-12-20T14:21:12.594Z,74.53
2022-12-20T14:23:42.827Z,60.78
2022-12-20T14:26:13.480Z,61.45
2022-12-20T14:28:45.052Z,63.88
2022-12-20T14:31:26.986Z,58.72
2022-12-20T14:34:03.725Z,55.10
2022-12-20T14:36:32.244Z,58.00
2022-12-20T14:39:00.947Z,55.00
2022-12-20T14:41:34.988Z,55.13
2022-12-20T14:44:06.720Z,53.53
2022-12-20T14:46:41.183Z,55.20
2022-12-20T14:49:22.317Z,81.05
2022-12-20T14:51:51.217Z,52.72
2022-12-20T14:54:56.611Z,51.22
2022-12-20T14:57:12.303Z,57.03
2022-12-20T14:59:40.094Z,57.20
2022-12-20T15:02:34.165Z,58.15
2022-12-20T15:05:08.161Z,56.53
2022-12-20T15:07:36.525Z,58.53
2022-12-20T15:10:04.860Z,64.55
2022-12-20T15:12:36.275Z,76.50
2022-12-20T15:15:28.873Z,89.32
2022-12-20T15:17:59.484Z,87.22
2022-12-20T15:20:27.851Z,84.10
2022-12-20T15:22:55.839Z,85.72
2022-12-20T15:25:23.576Z,86.50
2022-12-20T15:27:51.917Z,76.63
2022-12-20T15:30:19.905Z,80.00
2022-12-20T15:32:55.084Z,102.50
2022-12-20T15:35:25.850Z,83.20
2022-12-20T15:37:53.832Z,63.17
2022-12-20T15:40:21.531Z,47.15
2022-12-20T15:42:49.786Z,45.45
2022-12-20T15:45:17.637Z,46.78
2022-12-20T15:47:45.609Z,45.45
2022-12-20T15:50:13.843Z,43.97
2022-12-20T15:52:44.300Z,46.05
2022-12-20T15:55:12.614Z,46.45
2022-12-20T15:57:41.196Z,54.08
2022-12-20T16:00:11.078Z,59.22
2022-12-20T16:02:39.477Z,50.38
2022-12-20T16:05:10.566Z,50.78
2022-12-20T16:07:38.716Z,66.72
2022-12-20T16:10:09.397Z,74.22
2022-12-20T16:12:38.551Z,62.53
2022-12-20T16:15:08.142Z,67.55
2022-12-20T16:17:36.168Z,67.68
2022-12-20T16:20:04.894Z,67.63
2022-12-20T16:22:32.879Z,76.03
2022-12-20T16:25:00.658Z,80.32
2022-12-20T16:27:30.324Z,75.90
2022-12-20T16:29:58.108Z,59.80
2022-12-20T16:32:26.070Z,62.40
2022-12-20T16:34:54.074Z,49.70
2022-12-20T16:37:22.433Z,49.75
2022-12-20T16:39:50.164Z,51.47
2022-12-20T16:42:22.100Z,51.97
2022-12-20T16:44:52.974Z,55.22
2022-12-20T16:47:21.876Z,54.92
2022-12-20T16:49:53.159Z,53.95
2022-12-20T16:52:24.482Z,52.58
2022-12-20T16:54:53.701Z,47.70
2022-12-20T16:57:22.173Z,50.10
2022-12-20T16:59:50.129Z,51.08
2022-12-20T17:02:27.027Z,48.63
2022-12-20T17:04:55.231Z,49.25
2022-12-20T17:07:23.375Z,50.35
2022-12-20T17:09:51.128Z,57.53
2022-12-20T17:12:21.914Z,56.05
2022-12-20T17:14:49.934Z,59.30
2022-12-20T17:17:18.530Z,66.00
2022-12-20T17:19:47.791Z,64.85
2022-12-20T17:22:24.902Z,67.55
2022-12-20T17:24:53.222Z,80.30
2022-12-20T17:27:21.410Z,85.78
2022-12-20T17:29:50.508Z,73.00
2022-12-20T17:32:22.042Z,72.47
2022-12-20T17:34:52.268Z,53.33
2022-12-20T17:37:20.976Z,62.17
2022-12-20T17:39:48.858Z,64.28
2022-12-20T17:42:17.601Z,78.05
2022-12-20T17:44:46.670Z,80.50
2022-12-20T17:47:16.881Z,86.00
2022-12-20T17:49:44.671Z,85.57
2022-12-20T17:52:15.908Z,80.13
2022-12-20T17:54:43.894Z,86.75
2022-12-20T17:57:14.433Z,92.88
2022-12-20T17:59:42.573Z,77.07
2022-12-20T18:02:20.845Z,125.50
2022-12-20T18:04:49.322Z,140.25
2022-12-20T18:07:18.724Z,129.80
2022-12-20T18:09:48.026Z,120.57
2022-12-20T18:12:16.193Z,112.82
2022-12-20T18:14:43.910Z,124.80
2022-12-20T18:17:12.109Z,82.20
2022-12-20T18:19:40.739Z,80.40
2022-12-20T18:22:08.869Z,71.90
2022-12-20T18:24:37.976Z,64.95
2022-12-20T18:27:06.100Z,60.13
2022-12-20T18:29:33.925Z,58.53
2022-12-20T18:32:02.159Z,60.65
2022-12-20T18:34:29.958Z,57.20
2022-12-20T18:36:57.934Z,58.65
2022-12-20T18:39:25.767Z,61.78
2022-12-20T18:41:55.221Z,60.60
2022-12-20T18:44:22.980Z,78.75
2022-12-20T18:46:51.048Z,59.92
2022-12-20T18:49:18.996Z,60.00
2022-12-20T18:51:47.116Z,62.30
2022-12-20T18:54:15.773Z,63.22
2022-12-20T18:56:43.996Z,59.28
2022-12-20T18:59:13.395Z,61.38
2022-12-20T19:01:43.260Z,59.55
2022-12-20T19:07:04.143Z,66.88
2022-12-20T19:09:49.684Z,68.38
2022-12-20T19:12:17.639Z,65.43
2022-12-20T19:14:47.508Z,63.97
2022-12-20T19:17:15.401Z,60.38
2022-12-20T19:19:43.712Z,76.05
2022-12-20T19:22:11.624Z,65.38
2022-12-20T19:24:39.801Z,61.47
2022-12-20T19:27:09.342Z,61.38
2022-12-20T19:29:37.469Z,81.72
2022-12-20T19:32:06.664Z,87.68
2022-12-20T19:34:34.770Z,80.50
2022-12-20T19:37:02.620Z,62.80
2022-12-20T19:39:30.639Z,53.83
2022-12-20T19:42:22.980Z,53.38
2022-12-20T19:44:47.628Z,50.90
2022-12-20T19:47:16.762Z,53.65
2022-12-20T19:49:44.803Z,50.33
2022-12-20T19:52:12.595Z,51.78
2022-12-20T19:54:42.829Z,51.15
2022-12-20T19:57:10.637Z,47.90
2022-12-20T19:59:38.818Z,52.65
2022-12-20T20:02:06.940Z,53.33
2022-12-20T20:04:36.503Z,51.45
2022-12-20T20:07:04.601Z,51.95
2022-12-20T20:09:32.794Z,54.28
2022-12-20T20:12:00.769Z,57.03
2022-12-20T20:14:28.928Z,57.60
2022-12-20T20:16:57.143Z,60.47
2022-12-20T20:19:25.238Z,58.78
2022-12-20T20:21:54.399Z,63.95
2022-12-20T20:24:22.458Z,61.70
2022-12-20T20:26:50.169Z,64.57
2022-12-20T20:29:18.736Z,64.72
2022-12-20T20:31:46.551Z,62.35
2022-12-20T20:34:14.634Z,60.95
2022-12-20T20:36:42.625Z,57.90
2022-12-20T20:39:11.945Z,55.97
2022-12-20T20:41:40.736Z,57.30
2022-12-20T20:44:11.374Z,56.05
2022-12-20T20:46:39.134Z,54.17
2022-12-20T20:49:07.091Z,55.83
2022-12-20T20:51:35.097Z,54.65
2022-12-20T20:54:03.125Z,55.10
2022-12-20T20:56:32.235Z,57.65
2022-12-20T20:59:05.268Z,56.10
2022-12-20T21:01:36.244Z,54.22
2022-12-20T21:04:05.355Z,53.05
2022-12-20T21:06:40.461Z,51.10
2022-12-20T21:09:11.483Z,49.90
2022-12-20T21:11:40.771Z,47.08
2022-12-20T21:14:08.877Z,47.20
2022-12-20T21:16:37.036Z,48.55
2022-12-20T21:19:05.633Z,50.22
2022-12-20T21:21:33.391Z,48.85
2022-12-20T21:24:01.645Z,46.72
2022-12-20T21:26:29.367Z,51.17
2022-12-20T21:28:59.619Z,53.17
2022-12-20T21:31:28.364Z,51.65
2022-12-20T21:33:57.100Z,52.33
2022-12-20T21:36:25.453Z,51.13
2022-12-20T21:38:55.543Z,49.55
2022-12-20T21:41:25.706Z,51.13
2022-12-20T21:43:56.597Z,49.78
2022-12-20T21:46:27.213Z,50.25
2022-12-20T21:48:55.791Z,50.90
2022-12-20T21:51:25.080Z,50.22
2022-12-20T21:53:55.986Z,48.95
2022-12-20T21:56:25.649Z,49.35
2022-12-20T21:58:54.172Z,49.53
2022-12-20T22:01:24.302Z,53.13
2022-12-20T22:03:55.771Z,54.90
2022-12-20T22:06:23.769Z,67.28
2022-12-20T22:08:52.132Z,69.75
2022-12-20T22:11:20.069Z,68.20
2022-12-20T22:13:48.373Z,70.13
2022-12-20T22:16:17.837Z,71.25
2022-12-20T22:18:49.559Z,78.55
2022-12-20T22:21:21.075Z,80.72
2022-12-20T22:23:49.713Z,73.13
2022-12-20T22:26:20.176Z,70.57
2022-12-20T22:28:51.866Z,64.13
2022-12-20T22:31:21.323Z,58.67
2022-12-20T22:33:49.638Z,56.53
2022-12-20T22:36:18.759Z,62.50
2022-12-20T22:38:46.938Z,61.65
2022-12-20T22:41:16.918Z,63.30
2022-12-20T22:43:46.145Z,58.53
2022-12-20T22:46:16.133Z,59.03
2022-12-20T22:48:45.416Z,58.03
2022-12-20T22:51:14.970Z,59.78
2022-12-20T22:53:45.284Z,58.65
2022-12-20T22:56:13.237Z,61.05
2022-12-20T22:58:41.643Z,56.85
2022-12-20T23:01:13.092Z,61.85
2022-12-20T23:03:41.702Z,60.53
2022-12-20T23:06:12.571Z,60.10
2022-12-20T23:08:41.196Z,59.60
2022-12-20T23:11:34.493Z,59.85
2022-12-20T23:14:20.280Z,59.35
2022-12-20T23:16:48.380Z,55.22
2022-12-20T23:19:16.426Z,58.67
2022-12-20T23:22:01.747Z,64.18
2022-12-20T23:24:29.926Z,74.75
2022-12-20T23:26:59.039Z,72.22
2022-12-20T23:29:27.080Z,74.38
2022-12-20T23:31:55.113Z,74.88
2022-12-20T23:34:23.359Z,68.25
2022-12-20T23:36:51.075Z,76.55
2022-12-20T23:39:19.535Z,71.45
2022-12-20T23:41:47.451Z,73.30
2022-12-20T23:44:16.706Z,73.28
2022-12-20T23:46:44.699Z,73.07
2022-12-20T23:49:12.808Z,76.47
2022-12-20T23:51:40.513Z,78.90
2022-12-20T23:54:09.959Z,75.68
2022-12-20T23:56:37.660Z,77.68
2022-12-20T23:59:05.827Z,78.70
